首页
METAR-TAF:

METAR-TAF

机场 :

尼亞加拉瀑布城, 紐約州, 美国

纬度: 43-06-26N, 经度: 078-56-43W, 海拔: 180米

当前天气观测

该预报发布于37分钟前的12:53 UTC
风速6节,风向东北
温度 18°C
湿度 68%
气压 1014 hPa
能見度: 16.1公里
阴天层高于7500英尺

METAR: KIAG 181253Z 04006KT 10SM OVC075 18/12 A2995 RMK AO2 SLP142 T01830117

时间: 09:30 (13:30 UTC)

预报

该预报发布于2小时和10分钟前的11:20 UTC
预报有效从18日的 12点(UTC)到 19日的 12点(UTC)
风速6节,风向东北
能見度: 10公里
少量云层高于3000英尺
多云层高于6000英尺
从 18日的 1400点(UTC)
风速9节,风向东北
能見度: 10公里
多云层高于7000英尺
从 18日的 1600点(UTC)
风速7节,风向
能見度: 10公里
散云层高于12000英尺
从 19日的 0200点(UTC)
风速4节,风向西南
能見度: 10公里
少量云层高于12000英尺

TAF: KIAG 181120Z 1812/1912 05006KT P6SM FEW030 BKN060 FM181400 04009KT P6SM BKN070 FM181600 01007KT P6SM SCT120 FM190200 22004KT P6SM FEW120

超过4000个机场的气象观测和天气预报(METAR&TAF报告)。

可查询的气象台以黄色和红色小点在地图上表示。

将鼠标移到小点上方,可查看气象台名称。

然后点击查看天气观测和预报。

如需切换地图:点击带黑十字的绿色按钮放大地图;点击带横线的绿色按钮缩小地图;或者点击绿色箭头查看邻近地区的地图。


METAR-TAF: